Time;durP1;ratioP1;P1;durP2;ratioP2;P2;SDS_P1;SDS_P2;PMS_P1;PMS_P2;Temp;Humidity;BMP_temperature;BMP_pressure;BME280_temperature;BME280_humidity;BME280_pressure;Samples;Min_cycle;Max_cycle;Signal;HPM_P1;HPM_P2
2023/03/06 00:02:36;;;;;;;19.57;8.97;;;;;3.20;95467.00;;;;8434078;28;20583;-75
2023/03/06 00:06:40;;;;;;;24.97;8.43;;;;;3.20;95461.00;;;;8435981;28;20248;-75
2023/03/06 00:10:44;;;;;;;26.30;9.03;;;;;3.20;95462.00;;;;8436210;28;20704;-75
2023/03/06 00:14:47;;;;;;;22.83;8.53;;;;;3.20;95449.00;;;;8419068;28;20598;-74
2023/03/06 00:18:53;;;;;;;20.00;8.53;;;;;3.10;95453.00;;;;8435374;28;20525;-74
2023/03/06 00:22:58;;;;;;;21.37;8.53;;;;;3.10;95431.00;;;;8435816;28;20202;-75
2023/03/06 00:27:10;;;;;;;23.13;9.37;;;;;3.10;95432.00;;;;8435400;28;20189;-75
2023/03/06 00:31:13;;;;;;;21.97;8.37;;;;;3.10;95434.00;;;;8436237;28;20265;-75
2023/03/06 00:35:19;;;;;;;23.27;8.83;;;;;3.10;95429.00;;;;8435264;28;20580;-75
2023/03/06 00:39:27;;;;;;;23.07;9.37;;;;;3.10;95427.00;;;;8434902;28;20241;-75
2023/03/06 00:43:31;;;;;;;24.17;8.80;;;;;3.10;95425.00;;;;8435299;28;20194;-74
2023/03/06 00:47:38;;;;;;;19.53;7.87;;;;;3.10;95409.00;;;;8435148;28;20252;-74
2023/03/06 00:51:41;;;;;;;26.63;9.87;;;;;3.10;95413.00;;;;8434478;28;20248;-74
2023/03/06 00:55:45;;;;;;;25.43;9.93;;;;;3.10;95412.00;;;;8434211;28;20230;-74
2023/03/06 00:59:51;;;;;;;27.67;9.33;;;;;3.10;95411.00;;;;8434244;28;20198;-73
2023/03/06 01:03:57;;;;;;;25.73;9.60;;;;;3.00;95397.00;;;;8435362;28;20274;-73
2023/03/06 01:08:00;;;;;;;25.30;9.20;;;;;3.00;95401.00;;;;8432310;28;20384;-72
2023/03/06 01:12:05;;;;;;;26.53;10.70;;;;;2.90;95386.00;;;;8433967;28;20196;-73
2023/03/06 01:16:15;;;;;;;25.30;10.07;;;;;2.90;95372.00;;;;8432862;28;20329;-73
2023/03/06 01:20:20;;;;;;;26.73;10.00;;;;;2.90;95382.00;;;;8434753;28;20181;-73
2023/03/06 01:24:24;;;;;;;26.30;10.63;;;;;2.90;95370.00;;;;8432590;28;20189;-73
2023/03/06 01:28:29;;;;;;;26.80;10.10;;;;;3.00;95358.00;;;;8433119;28;20209;-73
2023/03/06 01:32:33;;;;;;;26.93;10.33;;;;;3.00;95366.00;;;;8431956;28;20242;-73
2023/03/06 01:36:37;;;;;;;27.27;11.03;;;;;2.90;95360.00;;;;8429890;28;20223;-73
2023/03/06 01:40:42;;;;;;;28.43;10.47;;;;;2.90;95358.00;;;;8434149;28;20217;-73
2023/03/06 01:45:05;;;;;;;26.97;10.83;;;;;2.90;95348.00;;;;8432318;28;20192;-73
2023/03/06 01:49:16;;;;;;;32.17;10.40;;;;;2.90;95352.00;;;;8432287;28;20213;-73
2023/03/06 01:53:22;;;;;;;30.80;10.23;;;;;2.80;95340.00;;;;8431912;28;20204;-72
2023/03/06 01:57:32;;;;;;;33.93;12.23;;;;;2.80;95340.00;;;;8414681;28;20228;-71
2023/03/06 02:01:41;;;;;;;30.20;11.93;;;;;2.70;95334.00;;;;8431817;28;20234;-72
2023/03/06 02:05:45;;;;;;;32.13;11.10;;;;;2.70;95333.00;;;;8432803;28;20578;-72
2023/03/06 02:09:51;;;;;;;29.90;10.77;;;;;2.80;95319.00;;;;8432268;28;20320;-72
2023/03/06 02:13:56;;;;;;;31.70;11.67;;;;;2.80;95315.00;;;;8432377;28;20234;-72
2023/03/06 02:18:00;;;;;;;30.90;11.73;;;;;2.70;95309.00;;;;8431462;28;20273;-72
2023/03/06 02:22:04;;;;;;;29.53;11.33;;;;;2.70;95309.00;;;;8432104;28;20191;-71
2023/03/06 02:26:09;;;;;;;31.03;11.30;;;;;2.70;95303.00;;;;8431323;28;20521;-72
2023/03/06 02:30:17;;;;;;;26.67;11.57;;;;;2.70;95312.00;;;;8431443;28;20198;-71
2023/03/06 02:34:56;;;;;;;28.57;10.63;;;;;2.60;95308.00;;;;8431778;28;20194;-71
2023/03/06 02:39:03;;;;;;;30.43;11.97;;;;;2.60;95298.00;;;;8432381;28;20591;-71
2023/03/06 02:43:12;;;;;;;33.77;11.67;;;;;2.60;95297.00;;;;8432068;28;20501;-71
2023/03/06 02:47:15;;;;;;;30.37;11.40;;;;;2.50;95298.00;;;;8431383;28;20197;-71
2023/03/06 02:51:24;;;;;;;33.17;12.27;;;;;2.50;95285.00;;;;8430866;28;20264;-71
2023/03/06 02:55:29;;;;;;;28.50;11.40;;;;;2.50;95286.00;;;;8431656;28;20224;-70
2023/03/06 02:59:33;;;;;;;33.73;12.63;;;;;2.50;95282.00;;;;8430639;28;20202;-70
2023/03/06 03:03:39;;;;;;;31.43;12.60;;;;;2.50;95274.00;;;;8453088;22;20653;-71
2023/03/06 03:07:44;;;;;;;30.97;11.80;;;;;2.60;95274.00;;;;8436962;28;20195;-72
2023/03/06 03:11:47;;;;;;;33.90;12.87;;;;;2.60;95278.00;;;;8437048;28;20240;-72
2023/03/06 03:16:05;;;;;;;35.33;12.37;;;;;2.50;95266.00;;;;8443543;28;20252;-73
2023/03/06 03:20:13;;;;;;;31.13;12.27;;;;;2.50;95259.00;;;;8441989;28;20286;-72
2023/03/06 03:24:18;;;;;;;32.03;12.53;;;;;2.60;95262.00;;;;8445429;28;20196;-73
2023/03/06 03:28:23;;;;;;;31.90;12.03;;;;;2.70;95265.00;;;;8439053;28;20287;-72
2023/03/06 03:32:30;;;;;;;31.13;12.40;;;;;2.70;95252.00;;;;8425855;28;20641;-73
2023/03/06 03:36:34;;;;;;;39.00;12.30;;;;;2.70;95254.00;;;;8440226;28;20365;-75
2023/03/06 03:40:39;;;;;;;36.33;12.33;;;;;2.70;95249.00;;;;8445381;28;20245;-75
2023/03/06 03:44:44;;;;;;;38.87;14.13;;;;;2.70;95238.00;;;;8446161;28;20540;-73
2023/03/06 03:48:55;;;;;;;39.43;13.37;;;;;2.70;95239.00;;;;8455610;28;20264;-71
2023/03/06 03:53:07;;;;;;;34.57;12.47;;;;;2.70;95230.00;;;;8454685;28;20197;-72
2023/03/06 03:57:17;;;;;;;34.87;12.73;;;;;2.70;95232.00;;;;8449615;28;20884;-72
2023/03/06 04:01:23;;;;;;;33.57;11.87;;;;;2.70;95225.00;;;;8448176;28;20224;-70
2023/03/06 04:05:28;;;;;;;35.67;13.03;;;;;2.70;95227.00;;;;8410369;28;20606;-73
2023/03/06 04:09:31;;;;;;;37.07;13.40;;;;;2.70;95224.00;;;;8425187;28;20221;-71
2023/03/06 04:13:36;;;;;;;34.00;12.77;;;;;2.70;95213.00;;;;8395570;28;20633;-71
2023/03/06 04:17:42;;;;;;;28.90;11.20;;;;;2.80;95223.00;;;;8409130;28;20273;-72
2023/03/06 04:21:47;;;;;;;34.13;12.23;;;;;2.80;95216.00;;;;8407644;28;20205;-71
2023/03/06 04:25:51;;;;;;;33.73;11.43;;;;;2.80;95224.00;;;;8421883;28;20201;-73
2023/03/06 04:29:56;;;;;;;36.40;12.67;;;;;2.70;95215.00;;;;8397294;28;20207;-71
2023/03/06 04:33:59;;;;;;;28.60;11.47;;;;;2.70;95218.00;;;;8420653;28;20201;-70
2023/03/06 04:38:04;;;;;;;28.40;12.70;;;;;2.70;95206.00;;;;8413293;28;20225;-76
2023/03/06 04:42:07;;;;;;;29.40;11.00;;;;;2.70;95207.00;;;;8422205;28;20210;-70
2023/03/06 04:46:11;;;;;;;26.47;11.23;;;;;2.80;95198.00;;;;8416886;28;20204;-71
2023/03/06 04:50:15;;;;;;;33.10;11.80;;;;;2.80;95186.00;;;;8425510;28;20195;-75
2023/03/06 04:54:26;;;;;;;27.50;12.00;;;;;2.80;95191.00;;;;8425447;28;20259;-75
2023/03/06 04:58:29;;;;;;;26.50;11.20;;;;;2.80;95182.00;;;;8421289;28;20310;-71
2023/03/06 05:02:35;;;;;;;25.87;11.30;;;;;2.80;95172.00;;;;8413269;28;20233;-70
2023/03/06 05:06:47;;;;;;;26.37;11.37;;;;;2.80;95180.00;;;;8420320;28;20201;-74
2023/03/06 05:10:58;;;;;;;36.23;12.40;;;;;2.80;95174.00;;;;8389106;28;20204;-72
2023/03/06 05:15:01;;;;;;;28.30;11.73;;;;;2.70;95169.00;;;;8408324;28;20201;-76
2023/03/06 05:19:04;;;;;;;28.57;11.47;;;;;2.70;95172.00;;;;8412809;28;20219;-73
2023/03/06 05:23:07;;;;;;;35.40;13.10;;;;;2.70;95174.00;;;;8414011;28;20577;-78
2023/03/06 05:27:12;;;;;;;31.37;12.40;;;;;2.70;95172.00;;;;8395303;28;20197;-76
2023/03/06 05:31:21;;;;;;;33.10;11.67;;;;;2.70;95175.00;;;;8411201;28;20188;-74
2023/03/06 05:35:27;;;;;;;34.50;13.20;;;;;2.70;95171.00;;;;8415474;28;20204;-77
2023/03/06 05:39:30;;;;;;;31.07;13.00;;;;;2.60;95166.00;;;;8413829;28;20228;-73
2023/03/06 05:43:37;;;;;;;39.43;13.20;;;;;2.60;95168.00;;;;8407921;28;20298;-70
2023/03/06 05:47:41;;;;;;;37.70;13.67;;;;;2.50;95161.00;;;;8403100;28;20243;-76
2023/03/06 05:51:44;;;;;;;35.87;14.13;;;;;2.60;95167.00;;;;8411926;28;20298;-77
2023/03/06 05:55:56;;;;;;;36.03;13.03;;;;;2.50;95166.00;;;;8415947;28;20196;-76
2023/03/06 06:00:08;;;;;;;34.20;13.13;;;;;2.50;95156.00;;;;8397843;28;20219;-75
2023/03/06 06:04:12;;;;;;;33.80;12.77;;;;;2.60;95156.00;;;;8416094;28;20224;-76
2023/03/06 06:08:15;;;;;;;31.00;13.47;;;;;2.60;95163.00;;;;8418000;28;20254;-78
2023/03/06 06:12:18;;;;;;;33.70;12.97;;;;;2.60;95166.00;;;;8410390;28;20827;-77
2023/03/06 06:16:23;;;;;;;34.70;11.67;;;;;2.70;95175.00;;;;8416932;28;20245;-76
2023/03/06 06:25:49;;;;;;;31.80;12.20;;;;;2.70;95167.00;;;;8410677;28;20222;-76
2023/03/06 06:29:52;;;;;;;37.23;12.73;;;;;2.80;95160.00;;;;8409482;28;20227;-77
2023/03/06 06:33:57;;;;;;;32.80;12.47;;;;;2.90;95163.00;;;;8418018;28;20261;-76
2023/03/06 06:38:01;;;;;;;37.00;14.83;;;;;3.00;95168.00;;;;8420912;28;20247;-76
2023/03/06 06:42:08;;;;;;;37.03;13.83;;;;;3.00;95163.00;;;;8414346;28;20257;-77
2023/03/06 06:46:31;;;;;;;34.20;13.20;;;;;3.10;95165.00;;;;8411467;28;20197;-76
2023/03/06 06:50:57;;;;;;;31.93;12.40;;;;;3.20;95162.00;;;;8416684;28;20222;-77
2023/03/06 06:55:00;;;;;;;36.13;13.63;;;;;3.40;95156.00;;;;8419765;28;20206;-76
2023/03/06 06:59:10;;;;;;;33.13;12.50;;;;;3.60;95164.00;;;;8412265;28;20224;-77
2023/03/06 07:03:22;;;;;;;36.00;14.33;;;;;3.60;95161.00;;;;8394004;28;20227;-77
2023/03/06 07:07:33;;;;;;;31.67;12.70;;;;;3.70;95157.00;;;;8413814;28;21642;-78
2023/03/06 07:11:37;;;;;;;36.10;13.53;;;;;3.80;95158.00;;;;8416371;28;20258;-78
2023/03/06 07:15:40;;;;;;;46.10;18.93;;;;;3.80;95155.00;;;;8425785;28;20200;-78
2023/03/06 07:19:44;;;;;;;41.50;16.67;;;;;3.80;95166.00;;;;8421769;28;20251;-78
2023/03/06 07:23:48;;;;;;;38.13;15.40;;;;;3.80;95159.00;;;;8415773;28;20225;-80
2023/03/06 07:27:53;;;;;;;42.03;14.90;;;;;3.80;95160.00;;;;8421168;28;20260;-74
2023/03/06 07:31:56;;;;;;;36.20;14.80;;;;;3.80;95164.00;;;;8422567;28;20253;-75
2023/03/06 07:35:59;;;;;;;38.37;14.90;;;;;3.90;95159.00;;;;8426496;28;20200;-77
2023/03/06 07:40:06;;;;;;;40.67;15.33;;;;;3.90;95171.00;;;;8420768;28;20614;-75
2023/03/06 07:44:10;;;;;;;32.57;13.23;;;;;4.00;95176.00;;;;8417245;28;20208;-76
2023/03/06 07:48:13;;;;;;;31.37;13.57;;;;;4.10;95179.00;;;;8417970;28;20210;-77
2023/03/06 07:52:16;;;;;;;30.27;12.83;;;;;4.20;95175.00;;;;8425499;28;20202;-77
2023/03/06 07:56:21;;;;;;;33.43;12.93;;;;;4.20;95182.00;;;;8423769;28;20610;-79
2023/03/06 08:00:25;;;;;;;39.07;14.20;;;;;4.30;95180.00;;;;8405333;28;20254;-77
2023/03/06 08:04:29;;;;;;;34.57;13.97;;;;;4.40;95189.00;;;;8419409;28;21680;-77
2023/03/06 08:08:34;;;;;;;36.47;13.77;;;;;4.50;95188.00;;;;8399066;28;20201;-79
2023/03/06 08:12:40;;;;;;;36.23;14.10;;;;;4.50;95197.00;;;;8430348;28;20294;-76
2023/03/06 08:16:43;;;;;;;42.07;15.03;;;;;4.60;95196.00;;;;8425521;28;20213;-76
2023/03/06 08:20:46;;;;;;;35.60;13.97;;;;;4.60;95188.00;;;;8422447;28;20275;-78
2023/03/06 08:24:54;;;;;;;36.87;13.50;;;;;4.70;95188.00;;;;8417020;28;20716;-78
2023/03/06 08:29:03;;;;;;;40.30;14.30;;;;;4.80;95189.00;;;;8417383;28;20626;-77
2023/03/06 08:33:06;;;;;;;34.90;13.93;;;;;4.90;95194.00;;;;8422879;28;20652;-80
2023/03/06 08:37:09;;;;;;;40.70;15.10;;;;;5.10;95203.00;;;;8417000;28;20198;-88
2023/03/06 08:41:16;;;;;;;34.37;12.17;;;;;5.40;95197.00;;;;8417256;28;20253;-86
2023/03/06 08:45:23;;;;;;;33.00;13.60;;;;;5.50;95206.00;;;;8421377;28;20321;-85
2023/03/06 08:49:26;;;;;;;36.27;13.80;;;;;5.50;95196.00;;;;8424325;28;20238;-86
2023/03/06 08:53:31;;;;;;;225.43;160.97;;;;;5.60;95202.00;;;;8417313;28;20530;-84
2023/03/06 08:57:51;;;;;;;274.07;148.63;;;;;5.70;95207.00;;;;8412780;28;20229;-85
2023/03/06 09:01:56;;;;;;;1076.97;482.40;;;;;5.70;95195.00;;;;8404923;28;20638;-87
2023/03/06 09:05:59;;;;;;;1509.57;561.80;;;;;5.60;95195.00;;;;8418889;28;20204;-83
2023/03/06 09:10:07;;;;;;;1031.00;372.07;;;;;5.70;95208.00;;;;8417610;28;20310;-81
2023/03/06 09:14:13;;;;;;;114.73;47.63;;;;;5.70;95210.00;;;;8415132;28;20240;-79
2023/03/06 09:18:18;;;;;;;80.07;33.67;;;;;5.70;95204.00;;;;8415995;28;20270;-84
2023/03/06 09:22:21;;;;;;;154.73;51.90;;;;;5.70;95211.00;;;;8414003;28;20206;-84
2023/03/06 09:26:25;;;;;;;527.80;188.37;;;;;5.80;95204.00;;;;8406346;28;20192;-81
2023/03/06 09:30:45;;;;;;;40.07;19.17;;;;;6.10;95208.00;;;;8413552;28;20201;-82
2023/03/06 09:34:50;;;;;;;41.60;20.23;;;;;6.20;95206.00;;;;8409560;28;20271;-83
2023/03/06 09:38:54;;;;;;;45.73;19.37;;;;;6.40;95195.00;;;;8410679;28;20980;-82
2023/03/06 09:42:58;;;;;;;90.13;43.93;;;;;6.60;95206.00;;;;8409831;28;20199;-81
2023/03/06 09:47:31;;;;;;;25.77;12.20;;;;;6.80;95202.00;;;;8414509;28;20195;-79
2023/03/06 09:51:50;;;;;;;74.03;32.03;;;;;6.80;95201.00;;;;8416547;28;20206;-79
2023/03/06 09:56:00;;;;;;;32.03;14.63;;;;;7.10;95197.00;;;;8416841;28;20211;-83
2023/03/06 10:00:15;;;;;;;29.73;14.43;;;;;7.40;95185.00;;;;8411949;28;20227;-84
2023/03/06 10:04:32;;;;;;;46.73;23.93;;;;;7.50;95189.00;;;;8412561;28;20255;-84
2023/03/06 10:08:48;;;;;;;498.47;219.20;;;;;7.60;95191.00;;;;8417012;28;20203;-84
2023/03/06 10:13:01;;;;;;;46.93;20.63;;;;;7.80;95186.00;;;;8416109;28;20199;-82
2023/03/06 10:17:10;;;;;;;1186.50;454.20;;;;;8.00;95186.00;;;;8417396;28;20200;-85
2023/03/06 10:21:36;;;;;;;524.97;185.27;;;;;8.20;95187.00;;;;8410993;28;20227;-80
2023/03/06 10:25:50;;;;;;;175.63;54.83;;;;;8.30;95178.00;;;;8411889;28;20210;-80
2023/03/06 10:30:05;;;;;;;315.97;88.77;;;;;8.60;95176.00;;;;8406808;28;20199;-83
2023/03/06 10:34:18;;;;;;;152.10;49.50;;;;;8.70;95176.00;;;;8413371;28;20990;-85
2023/03/06 10:38:24;;;;;;;422.87;147.23;;;;;8.90;95170.00;;;;8407593;28;20253;-80
2023/03/06 10:42:34;;;;;;;607.40;210.97;;;;;8.90;95159.00;;;;8417183;28;20202;-80
2023/03/06 10:46:42;;;;;;;40.63;16.73;;;;;8.90;95164.00;;;;8411403;28;20199;-81
2023/03/06 10:50:46;;;;;;;326.63;103.33;;;;;8.80;95165.00;;;;8421268;28;20203;-77
2023/03/06 10:54:51;;;;;;;118.80;50.80;;;;;8.70;95169.00;;;;8406084;28;20203;-77
2023/03/06 10:59:16;;;;;;;73.60;40.50;;;;;8.80;95159.00;;;;8413167;28;20226;-81
2023/03/06 11:03:22;;;;;;;15.07;8.30;;;;;8.80;95157.00;;;;8413349;28;20261;-79
2023/03/06 11:07:32;;;;;;;75.77;28.73;;;;;8.80;95150.00;;;;8385890;28;20204;-79
2023/03/06 11:11:38;;;;;;;339.57;108.47;;;;;8.90;95162.00;;;;8407209;28;20548;-79
2023/03/06 11:15:56;;;;;;;64.27;24.23;;;;;8.80;95156.00;;;;8413809;28;22351;-81
2023/03/06 11:20:15;;;;;;;698.97;250.83;;;;;9.00;95156.00;;;;8405016;28;20689;-80
2023/03/06 11:24:20;;;;;;;49.33;30.70;;;;;8.80;95147.00;;;;8408923;28;20199;-84
2023/03/06 11:28:28;;;;;;;65.90;41.43;;;;;8.90;95150.00;;;;8407754;28;20195;-80
2023/03/06 11:32:49;;;;;;;26.07;16.13;;;;;8.70;95151.00;;;;8407772;28;20195;-77
2023/03/06 11:36:55;;;;;;;26.67;14.20;;;;;8.90;95136.00;;;;8412287;28;20534;-82
2023/03/06 11:41:11;;;;;;;25.67;16.67;;;;;9.20;95131.00;;;;8413288;28;20229;-81
2023/03/06 11:45:24;;;;;;;16.50;9.07;;;;;9.20;95132.00;;;;8414450;28;20196;-82
2023/03/06 11:49:35;;;;;;;17.73;9.77;;;;;9.00;95130.00;;;;8409825;28;20187;-81
2023/03/06 11:53:39;;;;;;;15.03;8.43;;;;;9.00;95129.00;;;;8409849;28;20204;-83
2023/03/06 11:57:50;;;;;;;15.60;9.48;;;;;9.10;95125.00;;;;8391219;28;20653;-82
2023/03/06 12:02:02;;;;;;;11.20;5.93;;;;;9.20;95111.00;;;;8416306;28;20266;-84
2023/03/06 12:06:21;;;;;;;16.13;9.73;;;;;9.40;95110.00;;;;8411297;28;20298;-84
2023/03/06 12:10:30;;;;;;;26.53;20.43;;;;;9.50;95108.00;;;;8414294;28;20191;-83
2023/03/06 12:14:47;;;;;;;8.87;5.67;;;;;9.30;95106.00;;;;8415985;28;20216;-82
2023/03/06 12:19:02;;;;;;;11.93;6.37;;;;;9.20;95098.00;;;;8395101;28;20226;-83
2023/03/06 12:23:24;;;;;;;10.70;6.87;;;;;9.10;95099.00;;;;8422286;28;20257;-85
2023/03/06 12:27:36;;;;;;;11.17;6.03;;;;;8.50;95102.00;;;;8419413;28;20198;-81
2023/03/06 12:31:59;;;;;;;11.70;6.10;;;;;8.40;95101.00;;;;8412248;28;20262;-77
2023/03/06 12:36:23;;;;;;;11.57;6.23;;;;;8.50;95100.00;;;;8415062;28;20551;-78
2023/03/06 12:40:40;;;;;;;9.70;5.80;;;;;8.60;95101.00;;;;8421246;28;20275;-76
2023/03/06 12:45:04;;;;;;;13.40;5.77;;;;;8.40;95100.00;;;;8409090;28;20589;-78
2023/03/06 12:49:13;;;;;;;11.93;5.63;;;;;8.50;95096.00;;;;8410571;28;20226;-76
2023/03/06 12:53:39;;;;;;;11.23;6.33;;;;;8.30;95102.00;;;;8416149;28;20914;-78
2023/03/06 12:57:48;;;;;;;11.77;5.70;;;;;8.10;95113.00;;;;8395947;28;20207;-79
2023/03/06 13:02:11;;;;;;;12.90;6.90;;;;;7.50;95111.00;;;;8415588;28;20338;-77
2023/03/06 13:06:53;;;;;;;13.00;6.83;;;;;7.30;95097.00;;;;8413112;28;20195;-80
2023/03/06 13:11:30;;;;;;;15.40;7.50;;;;;7.10;95092.00;;;;8389758;28;20252;-78
2023/03/06 13:15:46;;;;;;;13.03;6.33;;;;;7.30;95089.00;;;;8412695;28;20928;-79
2023/03/06 13:20:28;;;;;;;13.17;6.13;;;;;7.50;95088.00;;;;8415630;28;20272;-79
2023/03/06 13:24:35;;;;;;;11.40;6.57;;;;;7.60;95090.00;;;;8410873;28;20196;-79
2023/03/06 13:28:48;;;;;;;11.47;5.70;;;;;7.70;95102.00;;;;8411988;28;20294;-84
2023/03/06 13:32:53;;;;;;;8.53;5.00;;;;;7.40;95095.00;;;;8418116;28;20692;-80
2023/03/06 13:37:29;;;;;;;8.83;5.20;;;;;7.10;95097.00;;;;8413898;28;20653;-81
2023/03/06 13:41:57;;;;;;;14.47;5.80;;;;;6.80;95099.00;;;;8421177;28;20856;-82
2023/03/06 13:46:23;;;;;;;8.90;5.07;;;;;6.70;95091.00;;;;8414048;28;20202;-82
2023/03/06 13:50:40;;;;;;;6.87;3.93;;;;;6.70;95103.00;;;;8413033;28;20199;-80
2023/03/06 13:54:56;;;;;;;10.07;5.40;;;;;6.60;95092.00;;;;8409862;28;20204;-84
2023/03/06 13:59:25;;;;;;;9.97;5.30;;;;;6.70;95087.00;;;;8405947;28;21142;-82
2023/03/06 14:04:03;;;;;;;9.27;5.17;;;;;6.80;95092.00;;;;8405597;28;20227;-80
2023/03/06 14:08:11;;;;;;;10.47;6.00;;;;;6.80;95081.00;;;;8357685;28;20293;-83
2023/03/06 14:12:22;;;;;;;10.03;5.53;;;;;6.90;95082.00;;;;8409678;28;20232;-85
2023/03/06 14:16:33;;;;;;;11.17;6.00;;;;;6.90;95085.00;;;;8412659;28;20642;-87
2023/03/06 14:20:56;;;;;;;10.90;5.63;;;;;6.80;95083.00;;;;8410245;28;20254;-80
2023/03/06 14:25:04;;;;;;;10.23;5.93;;;;;6.90;95086.00;;;;8411929;28;20195;-82
2023/03/06 14:29:22;;;;;;;9.07;5.77;;;;;7.10;95087.00;;;;8388990;28;20202;-85
2023/03/06 14:33:44;;;;;;;10.90;6.10;;;;;7.10;95081.00;;;;8412102;28;20260;-86
2023/03/06 14:37:51;;;;;;;11.33;6.27;;;;;7.10;95080.00;;;;8415445;28;20773;-86
2023/03/06 14:42:07;;;;;;;11.23;6.20;;;;;7.10;95078.00;;;;8406161;28;20231;-84
2023/03/06 14:46:19;;;;;;;12.53;6.70;;;;;7.10;95074.00;;;;8405518;28;20255;-83
2023/03/06 14:50:24;;;;;;;12.80;7.13;;;;;7.10;95062.00;;;;8408251;28;20199;-81
2023/03/06 14:54:33;;;;;;;15.17;8.53;;;;;7.20;95070.00;;;;8406560;28;20708;-83
2023/03/06 14:58:43;;;;;;;11.63;6.47;;;;;7.20;95070.00;;;;8411184;28;20229;-81
2023/03/06 15:02:51;;;;;;;12.37;7.50;;;;;7.20;95070.00;;;;8410225;28;20229;-81
2023/03/06 15:06:59;;;;;;;10.70;6.10;;;;;7.20;95075.00;;;;8409045;28;20195;-83
2023/03/06 15:11:05;;;;;;;10.20;5.77;;;;;7.00;95070.00;;;;8409407;28;20207;-77
2023/03/06 15:15:32;;;;;;;11.80;5.70;;;;;6.90;95074.00;;;;8409745;28;20231;-83
2023/03/06 15:19:39;;;;;;;12.20;6.47;;;;;6.80;95069.00;;;;8412000;28;20211;-80
2023/03/06 15:23:43;;;;;;;13.50;7.13;;;;;6.80;95078.00;;;;8405775;28;20199;-78
2023/03/06 15:27:51;;;;;;;10.90;5.90;;;;;6.80;95071.00;;;;8416523;28;20232;-78
2023/03/06 15:32:28;;;;;;;9.23;6.33;;;;;6.80;95075.00;;;;8399391;28;20199;-78
2023/03/06 15:36:34;;;;;;;12.33;7.17;;;;;6.90;95070.00;;;;8414523;28;20664;-78
2023/03/06 15:40:39;;;;;;;12.80;7.10;;;;;6.80;95066.00;;;;8406425;28;20285;-82
2023/03/06 15:44:42;;;;;;;12.40;7.13;;;;;6.80;95076.00;;;;8405908;28;20199;-84
2023/03/06 15:49:01;;;;;;;11.03;6.37;;;;;6.80;95068.00;;;;8407711;28;20256;-82
2023/03/06 15:53:05;;;;;;;12.57;6.97;;;;;6.70;95062.00;;;;8411930;28;20195;-78
2023/03/06 15:57:16;;;;;;;13.17;6.70;;;;;6.60;95061.00;;;;8408746;28;20206;-78
2023/03/06 16:01:20;;;;;;;12.57;6.87;;;;;6.50;95064.00;;;;8407864;28;20295;-76
2023/03/06 16:05:28;;;;;;;12.57;6.77;;;;;6.40;95058.00;;;;8423759;28;20225;-77
2023/03/06 16:09:32;;;;;;;11.40;6.63;;;;;6.30;95069.00;;;;8417660;28;20261;-78
2023/03/06 16:13:35;;;;;;;15.60;6.63;;;;;6.30;95068.00;;;;8418695;28;20199;-78
2023/03/06 16:17:38;;;;;;;12.40;6.87;;;;;6.30;95076.00;;;;8421537;28;20775;-77
2023/03/06 16:21:44;;;;;;;13.63;7.10;;;;;6.20;95072.00;;;;8416809;28;20907;-79
2023/03/06 16:25:51;;;;;;;12.43;6.63;;;;;6.10;95074.00;;;;8418736;28;20195;-75
2023/03/06 16:29:54;;;;;;;12.20;6.47;;;;;6.10;95073.00;;;;8409262;28;20196;-76
2023/03/06 16:33:57;;;;;;;13.53;6.93;;;;;6.10;95076.00;;;;8410206;28;20748;-74
2023/03/06 16:38:02;;;;;;;12.83;6.30;;;;;6.00;95078.00;;;;8415739;28;20195;-76
2023/03/06 16:42:06;;;;;;;12.40;6.63;;;;;5.90;95079.00;;;;8419537;28;20278;-75
2023/03/06 16:46:15;;;;;;;17.27;7.57;;;;;5.90;95085.00;;;;8404442;28;20202;-77
2023/03/06 16:50:24;;;;;;;11.50;6.60;;;;;5.80;95091.00;;;;8416938;28;20289;-76
2023/03/06 16:54:28;;;;;;;11.53;6.07;;;;;5.80;95080.00;;;;8414863;28;20256;-81
2023/03/06 16:58:34;;;;;;;12.87;7.10;;;;;5.70;95081.00;;;;8416372;28;20207;-79
2023/03/06 17:02:39;;;;;;;19.27;8.03;;;;;5.70;95093.00;;;;8417783;28;20412;-75
2023/03/06 17:06:43;;;;;;;15.80;7.50;;;;;5.50;95094.00;;;;8413776;28;20879;-72
2023/03/06 17:10:47;;;;;;;12.23;6.80;;;;;5.40;95093.00;;;;8410965;28;20253;-75
2023/03/06 17:14:52;;;;;;;11.10;6.40;;;;;5.30;95095.00;;;;8410310;28;20711;-78
2023/03/06 17:18:56;;;;;;;18.10;9.00;;;;;5.30;95108.00;;;;8419662;28;20603;-75
2023/03/06 17:23:04;;;;;;;26.70;13.57;;;;;5.20;95116.00;;;;8395772;28;20227;-76
2023/03/06 17:27:10;;;;;;;14.53;8.50;;;;;5.20;95119.00;;;;8412922;28;20538;-78
2023/03/06 17:31:18;;;;;;;15.80;8.23;;;;;4.90;95126.00;;;;8419207;28;20198;-76
2023/03/06 17:35:22;;;;;;;17.30;7.07;;;;;4.80;95129.00;;;;8412259;28;20226;-78
2023/03/06 17:39:44;;;;;;;13.93;7.77;;;;;4.70;95131.00;;;;8394351;28;20210;-81
2023/03/06 17:43:49;;;;;;;16.70;7.83;;;;;4.60;95135.00;;;;8402954;28;20288;-79
2023/03/06 17:47:56;;;;;;;16.10;8.23;;;;;4.60;95142.00;;;;8398765;28;20680;-76
2023/03/06 17:52:03;;;;;;;15.07;8.53;;;;;4.50;95142.00;;;;8421397;28;20202;-78
2023/03/06 17:56:09;;;;;;;19.37;8.83;;;;;4.50;95149.00;;;;8405304;28;20194;-78
2023/03/06 18:00:19;;;;;;;16.17;9.37;;;;;4.40;95144.00;;;;8424712;28;20197;-76
2023/03/06 18:04:26;;;;;;;24.03;16.63;;;;;4.40;95142.00;;;;8424168;28;20250;-77
2023/03/06 18:08:30;;;;;;;17.03;8.83;;;;;4.40;95139.00;;;;8425385;28;20201;-79
2023/03/06 18:12:34;;;;;;;15.77;8.07;;;;;4.40;95144.00;;;;8416387;28;20654;-78
2023/03/06 18:16:38;;;;;;;16.37;8.20;;;;;4.30;95151.00;;;;8413587;28;20202;-77
2023/03/06 18:20:42;;;;;;;17.93;7.77;;;;;4.30;95141.00;;;;8417963;28;20641;-77
2023/03/06 18:24:48;;;;;;;18.37;7.63;;;;;4.30;95149.00;;;;8422442;28;20615;-78
2023/03/06 18:28:54;;;;;;;17.60;8.13;;;;;4.20;95148.00;;;;8415627;28;20245;-79
2023/03/06 18:32:59;;;;;;;17.17;8.17;;;;;4.20;95151.00;;;;8422043;28;20195;-77
2023/03/06 18:37:04;;;;;;;15.67;8.43;;;;;4.20;95146.00;;;;8414051;28;20260;-77
2023/03/06 18:41:08;;;;;;;16.90;8.57;;;;;4.30;95150.00;;;;8413487;28;20249;-77
2023/03/06 18:45:14;;;;;;;17.37;8.87;;;;;4.30;95151.00;;;;8408368;28;20236;-78
2023/03/06 18:49:19;;;;;;;16.33;8.43;;;;;4.30;95146.00;;;;8409073;28;20217;-79
2023/03/06 18:53:22;;;;;;;17.17;8.70;;;;;4.30;95148.00;;;;8390702;28;20206;-78
2023/03/06 18:57:26;;;;;;;20.73;9.87;;;;;4.30;95151.00;;;;8407362;28;20199;-77
2023/03/06 19:01:35;;;;;;;19.17;9.43;;;;;4.40;95149.00;;;;8412762;28;20227;-77
2023/03/06 19:05:41;;;;;;;17.70;9.13;;;;;4.40;95153.00;;;;8412397;28;20205;-78
2023/03/06 19:09:49;;;;;;;18.17;9.87;;;;;4.40;95151.00;;;;8405702;28;20249;-79
2023/03/06 19:13:52;;;;;;;21.43;9.37;;;;;4.40;95157.00;;;;8401049;28;20255;-78
2023/03/06 19:17:56;;;;;;;17.67;9.00;;;;;4.40;95147.00;;;;8404287;28;20202;-75
2023/03/06 19:22:01;;;;;;;16.77;8.43;;;;;4.30;95143.00;;;;8407278;28;20691;-79
2023/03/06 19:26:07;;;;;;;20.17;8.67;;;;;4.30;95144.00;;;;8404282;28;20265;-79
2023/03/06 19:30:14;;;;;;;18.00;8.40;;;;;4.30;95145.00;;;;8410998;28;20205;-75
2023/03/06 19:34:18;;;;;;;17.13;8.70;;;;;4.30;95143.00;;;;8402288;28;20208;-75
2023/03/06 19:38:23;;;;;;;19.90;9.07;;;;;4.30;95150.00;;;;8390794;28;20197;-76
2023/03/06 19:42:28;;;;;;;20.47;9.47;;;;;4.30;95146.00;;;;8416075;28;20933;-75
2023/03/06 19:46:40;;;;;;;18.53;9.50;;;;;4.20;95150.00;;;;8410485;28;20275;-80
2023/03/06 19:50:43;;;;;;;19.47;9.70;;;;;4.20;95144.00;;;;8407583;28;20700;-76
2023/03/06 19:54:48;;;;;;;17.70;8.87;;;;;4.20;95145.00;;;;8408640;28;20200;-79
2023/03/06 19:58:51;;;;;;;22.13;9.77;;;;;4.20;95147.00;;;;8406030;28;20211;-78
2023/03/06 20:02:56;;;;;;;21.60;9.53;;;;;4.20;95147.00;;;;8395605;28;20222;-77
2023/03/06 20:07:09;;;;;;;22.47;10.00;;;;;4.20;95148.00;;;;8399658;28;20289;-80
2023/03/06 20:11:17;;;;;;;21.00;9.83;;;;;4.10;95155.00;;;;8403856;28;20708;-80
2023/03/06 20:15:26;;;;;;;17.27;9.30;;;;;4.00;95156.00;;;;8401699;28;20925;-80
2023/03/06 20:19:32;;;;;;;17.80;8.77;;;;;4.00;95152.00;;;;8401611;28;20199;-79
2023/03/06 20:23:39;;;;;;;19.60;8.77;;;;;4.00;95145.00;;;;8415013;28;20245;-78
2023/03/06 20:27:43;;;;;;;18.77;8.77;;;;;4.00;95145.00;;;;8424718;28;20198;-78
2023/03/06 20:31:48;;;;;;;20.83;8.77;;;;;4.00;95144.00;;;;8418750;28;20737;-78
2023/03/06 20:35:51;;;;;;;18.57;10.17;;;;;4.10;95144.00;;;;8402265;28;20252;-78
2023/03/06 20:39:56;;;;;;;18.20;8.87;;;;;4.00;95146.00;;;;8413351;28;20195;-79